Time,TemperatureF,DewpointF,PressureIn,WindDirection,WindDirectionDegrees,WindSpeedMPH,WindSpeedGustMPH,Humidity,HourlyPrecipIn,Conditions,Clouds,dailyrainin,SoftwareType,DateUTC
2013-01-24 00:11:00,36.6,12.0,30.10,East,97,0.0,1.0,36,0.00,,,0.00,weatherlink.com 1.10,2013-01-24 07:11:00,
2013-01-24 00:26:00,36.2,12.0,30.10,East,97,0.0,1.0,37,0.00,,,0.00,weatherlink.com 1.10,2013-01-24 07:26:00,
2013-01-24 00:41:00,35.8,12.0,30.09,NNE,27,0.0,1.0,38,0.00,,,0.00,weatherlink.com 1.10,2013-01-24 07:41:00,
2013-01-24 00:56:00,35.6,12.0,30.09,NNE,15,0.0,1.0,38,0.00,,,0.00,weatherlink.com 1.10,2013-01-24 07:56:00,
2013-01-24 01:11:00,35.3,12.0,30.09,NNW,336,0.0,1.0,39,0.00,,,0.00,weatherlink.com 1.10,2013-01-24 08:11:00,
2013-01-24 01:26:00,34.8,13.0,30.09,NNW,336,0.0,0.0,40,0.00,,,0.00,weatherlink.com 1.10,2013-01-24 08:26:00,
2013-01-24 01:41:00,34.3,13.0,30.09,NNW,336,0.0,0.0,41,0.00,,,0.00,weatherlink.com 1.10,2013-01-24 08:41:00,
2013-01-24 01:56:00,34.0,12.0,30.08,NNW,336,0.0,0.0,41,0.00,,,0.00,weatherlink.com 1.10,2013-01-24 08:56:00,
2013-01-24 02:11:00,33.8,13.0,30.07,East,82,0.0,1.0,42,0.00,,,0.00,weatherlink.com 1.10,2013-01-24 09:11:00,
2013-01-24 02:26:00,33.4,13.0,30.07,East,82,0.0,0.0,43,0.00,,,0.00,weatherlink.com 1.10,2013-01-24 09:26:00,
2013-01-24 02:41:00,32.9,12.0,30.07,East,98,0.0,0.0,43,0.00,,,0.00,weatherlink.com 1.10,2013-01-24 09:41:00,
2013-01-24 02:56:00,32.3,12.0,30.06,SSE,147,0.0,0.0,44,0.00,,,0.00,weatherlink.com 1.10,2013-01-24 09:56:00,
2013-01-24 03:11:00,31.3,13.0,30.06,SSE,147,0.0,0.0,46,0.00,,,0.00,weatherlink.com 1.10,2013-01-24 10:11:00,
2013-01-24 03:26:00,30.8,13.0,30.05,SSE,167,0.0,2.0,47,0.00,,,0.00,weatherlink.com 1.10,2013-01-24 10:26:00,
2013-01-24 03:41:00,30.0,13.0,30.05,SE,138,0.0,1.0,49,0.00,,,0.00,weatherlink.com 1.10,2013-01-24 10:41:00,
2013-01-24 03:56:00,29.7,13.0,30.04,South,176,0.0,0.0,49,0.00,,,0.00,weatherlink.com 1.10,2013-01-24 10:56:00,
2013-01-24 04:11:00,29.0,13.0,30.05,South,176,0.0,0.0,51,0.00,,,0.00,weatherlink.com 1.10,2013-01-24 11:11:00,
2013-01-24 04:26:00,28.5,13.0,30.05,South,176,0.0,0.0,52,0.00,,,0.00,weatherlink.com 1.10,2013-01-24 11:26:00,
2013-01-24 04:41:00,28.1,12.0,30.05,South,172,0.0,0.0,52,0.00,,,0.00,weatherlink.com 1.10,2013-01-24 11:41:00,
2013-01-24 04:56:00,28.6,12.0,30.04,SSE,148,0.0,1.0,51,0.00,,,0.00,weatherlink.com 1.10,2013-01-24 11:56:00,
2013-01-24 05:12:00,28.7,13.0,30.03,East,79,1.0,4.0,51,0.00,,,0.00,weatherlink.com 1.10,2013-01-24 12:12:00,
2013-01-24 05:27:00,28.8,12.0,30.03,East,85,0.0,1.0,50,0.00,,,0.00,weatherlink.com 1.10,2013-01-24 12:27:00,
2013-01-24 05:42:00,28.2,12.0,30.04,SSW,198,1.0,2.0,51,0.00,,,0.00,weatherlink.com 1.10,2013-01-24 12:42:00,
2013-01-24 05:57:00,29.3,12.0,30.05,NNW,346,0.0,2.0,49,0.00,,,0.00,weatherlink.com 1.10,2013-01-24 12:57:00,
2013-01-24 06:12:00,28.5,12.0,30.05,ESE,110,0.0,4.0,51,0.00,,,0.00,weatherlink.com 1.10,2013-01-24 13:12:00,
2013-01-24 06:27:00,28.8,13.0,30.03,WNW,300,2.0,3.0,51,0.00,,,0.00,weatherlink.com 1.10,2013-01-24 13:27:00,
2013-01-24 06:42:00,30.0,12.0,30.03,ENE,75,0.0,1.0,47,0.00,,,0.00,weatherlink.com 1.10,2013-01-24 13:42:00,
2013-01-24 06:57:00,29.1,12.0,30.04,ENE,75,0.0,0.0,49,0.00,,,0.00,weatherlink.com 1.10,2013-01-24 13:57:00,
2013-01-24 07:12:00,28.3,12.0,30.04,East,92,0.0,1.0,50,0.00,,,0.00,weatherlink.com 1.10,2013-01-24 14:12:00,
2013-01-24 07:27:00,27.5,12.0,30.04,NNE,31,0.0,1.0,52,0.00,,,0.00,weatherlink.com 1.10,2013-01-24 14:27:00,
2013-01-24 07:42:00,26.8,12.0,30.04,East,82,1.0,1.0,54,0.00,,,0.00,weatherlink.com 1.10,2013-01-24 14:42:00,
2013-01-24 07:57:00,28.0,12.0,30.04,East,95,1.0,1.0,52,0.00,,,0.00,weatherlink.com 1.10,2013-01-24 14:57:00,
2013-01-24 08:12:00,30.4,11.0,30.04,East,81,0.0,2.0,45,0.00,,,0.00,weatherlink.com 1.10,2013-01-24 15:12:00,
2013-01-24 08:27:00,31.9,12.0,30.05,NNE,26,0.0,1.0,44,0.00,,,0.00,weatherlink.com 1.10,2013-01-24 15:27:00,
2013-01-24 08:42:00,34.1,12.0,30.03,South,169,0.0,3.0,40,0.00,,,0.00,weatherlink.com 1.10,2013-01-24 15:42:00,
2013-01-24 08:57:00,35.0,12.0,30.04,SE,146,0.0,1.0,38,0.00,,,0.00,weatherlink.com 1.10,2013-01-24 15:57:00,
2013-01-24 09:12:00,37.7,12.0,30.03,East,83,0.0,1.0,34,0.00,,,0.00,weatherlink.com 1.10,2013-01-24 16:12:00,
2013-01-24 09:27:00,39.9,11.0,30.03,SW,235,0.0,1.0,31,0.00,,,0.00,weatherlink.com 1.10,2013-01-24 16:27:00,
2013-01-24 09:42:00,41.0,12.0,30.02,North,6,2.0,3.0,31,0.00,,,0.00,weatherlink.com 1.10,2013-01-24 16:42:00,
2013-01-24 09:57:00,43.7,12.0,30.02,North,4,0.0,3.0,28,0.00,,,0.00,weatherlink.com 1.10,2013-01-24 16:57:00,
2013-01-24 10:12:00,45.3,11.0,30.02,North,9,0.0,1.0,25,0.00,,,0.00,weatherlink.com 1.10,2013-01-24 17:12:00,
2013-01-24 10:27:00,47.2,11.0,30.01,East,84,0.0,0.0,23,0.00,,,0.00,weatherlink.com 1.10,2013-01-24 17:27:00,
2013-01-24 10:42:00,50.3,9.0,30.00,SSW,211,0.0,2.0,19,0.00,,,0.00,weatherlink.com 1.10,2013-01-24 17:42:00,
2013-01-24 10:57:00,53.9,8.0,30.00,South,187,3.0,3.0,16,0.00,,,0.00,weatherlink.com 1.10,2013-01-24 17:57:00,
2013-01-24 11:12:00,57.0,8.0,29.99,South,169,2.0,4.0,14,0.00,,,0.00,weatherlink.com 1.10,2013-01-24 18:12:00,
2013-01-24 11:27:00,59.4,8.0,29.98,WNW,301,4.0,8.0,13,0.00,,,0.00,weatherlink.com 1.10,2013-01-24 18:27:00,
2013-01-24 11:42:00,60.7,9.0,29.97,South,188,5.0,6.0,13,0.00,,,0.00,weatherlink.com 1.10,2013-01-24 18:42:00,
2013-01-24 11:58:00,62.3,9.0,29.96,SW,225,3.0,5.0,12,0.00,,,0.00,weatherlink.com 1.10,2013-01-24 18:58:00,
2013-01-24 12:13:00,64.1,10.0,29.95,SSW,204,1.0,5.0,12,0.00,,,0.00,weatherlink.com 1.10,2013-01-24 19:13:00,
2013-01-24 12:28:00,64.3,10.0,29.93,WNW,287,5.0,14.0,12,0.00,,,0.00,weatherlink.com 1.10,2013-01-24 19:28:00,
2013-01-24 12:43:00,64.2,10.0,29.92,NNW,333,6.0,9.0,12,0.00,,,0.00,weatherlink.com 1.10,2013-01-24 19:43:00,
2013-01-24 12:58:00,64.3,12.0,29.91,NW,323,5.0,11.0,13,0.00,,,0.00,weatherlink.com 1.10,2013-01-24 19:58:00,
2013-01-24 13:13:00,65.0,14.0,29.90,NNW,335,3.0,9.0,14,0.00,,,0.00,weatherlink.com 1.10,2013-01-24 20:13:00,
2013-01-24 13:28:00,65.9,15.0,29.90,ENE,63,2.0,9.0,14,0.00,,,0.00,weatherlink.com 1.10,2013-01-24 20:28:00,
2013-01-24 13:43:00,65.9,15.0,29.90,WNW,283,2.0,10.0,14,0.00,,,0.00,weatherlink.com 1.10,2013-01-24 20:43:00,
2013-01-24 13:58:00,66.4,16.0,29.89,West,263,5.0,13.0,14,0.00,,,0.00,weatherlink.com 1.10,2013-01-24 20:58:00,
2013-01-24 14:13:00,66.2,17.0,29.89,WNW,301,4.0,10.0,15,0.00,,,0.00,weatherlink.com 1.10,2013-01-24 21:13:00,
2013-01-24 14:28:00,66.0,17.0,29.89,NW,308,5.0,14.0,15,0.00,,,0.00,weatherlink.com 1.10,2013-01-24 21:28:00,
2013-01-24 14:43:00,65.4,19.0,29.90,NNE,13,6.0,12.0,17,0.00,,,0.00,weatherlink.com 1.10,2013-01-24 21:43:00,
2013-01-24 14:58:00,64.7,21.0,29.90,NNW,348,4.0,12.0,19,0.00,,,0.00,weatherlink.com 1.10,2013-01-24 21:58:00,
2013-01-24 15:13:00,64.4,23.0,29.90,NNE,27,3.0,8.0,21,0.00,,,0.00,weatherlink.com 1.10,2013-01-24 22:13:00,
2013-01-24 15:28:00,63.4,24.0,29.90,WNW,283,3.0,10.0,22,0.00,,,0.00,weatherlink.com 1.10,2013-01-24 22:28:00,
2013-01-24 15:43:00,63.2,24.0,29.90,North,8,5.0,12.0,22,0.00,,,0.00,weatherlink.com 1.10,2013-01-24 22:43:00,
2013-01-24 15:58:00,62.2,24.0,29.90,NW,318,10.0,13.0,23,0.00,,,0.00,weatherlink.com 1.10,2013-01-24 22:58:00,
2013-01-24 16:13:00,62.0,24.0,29.91,North,11,2.0,12.0,23,0.00,,,0.00,weatherlink.com 1.10,2013-01-24 23:13:00,
2013-01-24 16:28:00,61.4,24.0,29.91,North,5,4.0,10.0,24,0.00,,,0.00,weatherlink.com 1.10,2013-01-24 23:28:00,
2013-01-24 16:43:00,60.1,24.0,29.91,NW,326,3.0,10.0,25,0.00,,,0.00,weatherlink.com 1.10,2013-01-24 23:43:00,
2013-01-24 16:58:00,58.2,24.0,29.91,NE,39,5.0,9.0,27,0.00,,,0.00,weatherlink.com 1.10,2013-01-24 23:58:00,
2013-01-24 17:13:00,57.5,24.0,29.92,NNW,342,3.0,11.0,28,0.00,,,0.00,weatherlink.com 1.10,2013-01-25 00:13:00,
2013-01-24 17:28:00,55.8,25.0,29.92,NNW,333,3.0,10.0,30,0.00,,,0.00,weatherlink.com 1.10,2013-01-25 00:28:00,
2013-01-24 17:43:00,55.4,25.0,29.94,NNW,342,2.0,12.0,31,0.00,,,0.00,weatherlink.com 1.10,2013-01-25 00:43:00,
2013-01-24 17:58:00,55.0,25.0,29.96,NW,313,0.0,9.0,32,0.00,,,0.00,weatherlink.com 1.10,2013-01-25 00:58:00,
2013-01-24 18:13:00,55.5,25.0,29.95,North,349,4.0,9.0,31,0.00,,,0.00,weatherlink.com 1.10,2013-01-25 01:13:00,
2013-01-24 18:28:00,55.1,26.0,29.96,WNW,302,3.0,9.0,32,0.00,,,0.00,weatherlink.com 1.10,2013-01-25 01:28:00,
2013-01-24 18:43:00,54.7,26.0,29.97,North,1,9.0,10.0,33,0.00,,,0.00,weatherlink.com 1.10,2013-01-25 01:43:00,
2013-01-24 18:58:00,54.9,25.0,29.98,WNW,298,4.0,9.0,32,0.00,,,0.00,weatherlink.com 1.10,2013-01-25 01:58:00,
2013-01-24 19:13:00,55.1,26.0,29.98,West,266,3.0,8.0,32,0.00,,,0.00,weatherlink.com 1.10,2013-01-25 02:13:00,
2013-01-24 19:28:00,55.0,25.0,29.98,NNW,332,3.0,8.0,32,0.00,,,0.00,weatherlink.com 1.10,2013-01-25 02:28:00,
2013-01-24 19:43:00,54.5,26.0,29.98,North,354,2.0,10.0,33,0.00,,,0.00,weatherlink.com 1.10,2013-01-25 02:43:00,
2013-01-24 19:59:00,54.5,26.0,30.00,WNW,300,3.0,9.0,33,0.00,,,0.00,weatherlink.com 1.10,2013-01-25 02:59:00,
2013-01-24 20:13:00,54.5,26.0,29.99,NNW,345,4.0,10.0,33,0.00,,,0.00,weatherlink.com 1.10,2013-01-25 03:13:00,
2013-01-24 20:28:00,53.8,26.0,29.99,NE,44,6.0,9.0,34,0.00,,,0.00,weatherlink.com 1.10,2013-01-25 03:28:00,
2013-01-24 20:43:00,53.9,25.0,29.99,NNW,344,2.0,9.0,33,0.00,,,0.00,weatherlink.com 1.10,2013-01-25 03:43:00,
2013-01-24 20:58:00,53.7,25.0,30.00,NW,313,2.0,7.0,33,0.00,,,0.00,weatherlink.com 1.10,2013-01-25 03:58:00,
2013-01-24 21:13:00,53.2,25.0,30.00,WNW,302,2.0,6.0,34,0.00,,,0.00,weatherlink.com 1.10,2013-01-25 04:13:00,
2013-01-24 21:28:00,52.2,25.0,30.00,NW,319,1.0,3.0,35,0.00,,,0.00,weatherlink.com 1.10,2013-01-25 04:28:00,
2013-01-24 21:43:00,52.2,25.0,29.99,NW,307,0.0,6.0,35,0.00,,,0.00,weatherlink.com 1.10,2013-01-25 04:43:00,
2013-01-24 21:58:00,52.4,25.0,30.00,NNW,330,3.0,5.0,35,0.00,,,0.00,weatherlink.com 1.10,2013-01-25 04:58:00,
2013-01-24 22:13:00,52.0,25.0,30.00,NW,309,2.0,8.0,35,0.00,,,0.00,weatherlink.com 1.10,2013-01-25 05:13:00,
2013-01-24 22:28:00,51.9,25.0,30.01,NNW,329,1.0,4.0,35,0.00,,,0.00,weatherlink.com 1.10,2013-01-25 05:28:00,
2013-01-24 22:43:00,51.5,25.0,30.03,NNE,21,2.0,2.0,36,0.00,,,0.00,weatherlink.com 1.10,2013-01-25 05:43:00,
2013-01-24 22:58:00,50.6,25.0,30.02,NW,309,1.0,4.0,37,0.00,,,0.00,weatherlink.com 1.10,2013-01-25 05:58:00,
2013-01-24 23:14:00,49.6,25.0,30.02,SE,132,0.0,3.0,38,0.00,,,0.00,weatherlink.com 1.10,2013-01-25 06:14:00,
2013-01-24 23:28:00,48.0,25.0,30.02,East,79,0.0,0.0,40,0.00,,,0.00,weatherlink.com 1.10,2013-01-25 06:28:00,
2013-01-24 23:43:00,45.4,24.0,30.01,East,79,0.0,0.0,43,0.00,,,0.00,weatherlink.com 1.10,2013-01-25 06:43:00,
2013-01-24 23:59:00,44.8,24.0,30.02,WNW,294,0.0,3.0,45,0.00,,,0.00,weatherlink.com 1.10,2013-01-25 06:59:00,